sensor_id;sensor_type;location;lat;lon;timestamp;P1;durP1;ratioP1;P2;durP2;ratioP2
56718;SDS011;42597;40.636;0.278;2022-07-03T00:00:06;6.47;;;3.58;;
56718;SDS011;42597;40.636;0.278;2022-07-03T00:02:32;8.48;;;3.90;;
56718;SDS011;42597;40.636;0.278;2022-07-03T00:04:57;6.15;;;3.80;;
56718;SDS011;42597;40.636;0.278;2022-07-03T00:07:23;8.75;;;4.45;;
56718;SDS011;42597;40.636;0.278;2022-07-03T00:09:49;9.60;;;3.67;;
56718;SDS011;42597;40.636;0.278;2022-07-03T00:12:14;5.80;;;3.50;;
56718;SDS011;42597;40.636;0.278;2022-07-03T00:14:40;6.32;;;3.63;;
56718;SDS011;42597;40.636;0.278;2022-07-03T00:17:06;7.70;;;4.10;;
56718;SDS011;42597;40.636;0.278;2022-07-03T00:19:31;6.85;;;4.00;;
56718;SDS011;42597;40.636;0.278;2022-07-03T00:21:59;22.52;;;7.15;;
56718;SDS011;42597;40.636;0.278;2022-07-03T00:26:58;10.23;;;4.38;;
56718;SDS011;42597;40.636;0.278;2022-07-03T00:29:26;6.87;;;3.80;;
56718;SDS011;42597;40.636;0.278;2022-07-03T00:32:00;8.57;;;4.32;;
56718;SDS011;42597;40.636;0.278;2022-07-03T00:34:26;9.05;;;4.20;;
56718;SDS011;42597;40.636;0.278;2022-07-03T00:36:55;6.88;;;4.10;;
56718;SDS011;42597;40.636;0.278;2022-07-03T00:39:22;6.45;;;3.88;;
56718;SDS011;42597;40.636;0.278;2022-07-03T00:41:48;10.27;;;4.32;;
56718;SDS011;42597;40.636;0.278;2022-07-03T00:44:28;9.13;;;4.68;;
56718;SDS011;42597;40.636;0.278;2022-07-03T00:46:54;7.65;;;4.60;;
56718;SDS011;42597;40.636;0.278;2022-07-03T00:49:22;8.13;;;4.53;;
56718;SDS011;42597;40.636;0.278;2022-07-03T00:51:50;8.83;;;4.00;;
56718;SDS011;42597;40.636;0.278;2022-07-03T00:54:19;10.32;;;5.05;;
56718;SDS011;42597;40.636;0.278;2022-07-03T00:56:50;14.48;;;5.53;;
56718;SDS011;42597;40.636;0.278;2022-07-03T00:59:17;7.68;;;4.30;;
56718;SDS011;42597;40.636;0.278;2022-07-03T01:01:44;7.35;;;4.03;;
56718;SDS011;42597;40.636;0.278;2022-07-03T01:09:25;7.57;;;3.95;;
56718;SDS011;42597;40.636;0.278;2022-07-03T01:12:33;6.28;;;4.05;;
56718;SDS011;42597;40.636;0.278;2022-07-03T01:18:27;7.60;;;3.83;;
56718;SDS011;42597;40.636;0.278;2022-07-03T01:21:45;8.38;;;4.35;;
56718;SDS011;42597;40.636;0.278;2022-07-03T01:26:53;10.75;;;5.47;;
56718;SDS011;42597;40.636;0.278;2022-07-03T01:29:23;7.57;;;4.78;;
56718;SDS011;42597;40.636;0.278;2022-07-03T01:31:54;8.18;;;4.18;;
56718;SDS011;42597;40.636;0.278;2022-07-03T01:34:21;6.95;;;3.92;;
56718;SDS011;42597;40.636;0.278;2022-07-03T01:41:47;5.90;;;4.27;;
56718;SDS011;42597;40.636;0.278;2022-07-03T01:44:15;10.35;;;5.05;;
56718;SDS011;42597;40.636;0.278;2022-07-03T01:46:42;8.00;;;4.13;;
56718;SDS011;42597;40.636;0.278;2022-07-03T01:51:38;8.98;;;4.40;;
56718;SDS011;42597;40.636;0.278;2022-07-03T01:54:04;7.30;;;4.40;;
56718;SDS011;42597;40.636;0.278;2022-07-03T01:56:32;8.98;;;4.00;;
56718;SDS011;42597;40.636;0.278;2022-07-03T01:58:59;10.00;;;4.60;;
56718;SDS011;42597;40.636;0.278;2022-07-03T02:01:26;8.10;;;4.28;;
56718;SDS011;42597;40.636;0.278;2022-07-03T02:04:32;5.68;;;4.10;;
56718;SDS011;42597;40.636;0.278;2022-07-03T02:09:49;8.60;;;4.03;;
56718;SDS011;42597;40.636;0.278;2022-07-03T02:15:23;5.78;;;4.05;;
56718;SDS011;42597;40.636;0.278;2022-07-03T02:17:54;7.88;;;4.72;;
56718;SDS011;42597;40.636;0.278;2022-07-03T02:20:22;9.48;;;4.57;;
56718;SDS011;42597;40.636;0.278;2022-07-03T02:22:57;6.45;;;3.92;;
56718;SDS011;42597;40.636;0.278;2022-07-03T02:25:36;8.50;;;4.28;;
56718;SDS011;42597;40.636;0.278;2022-07-03T02:30:49;5.30;;;4.05;;
56718;SDS011;42597;40.636;0.278;2022-07-03T02:33:21;8.02;;;5.40;;
56718;SDS011;42597;40.636;0.278;2022-07-03T02:35:51;5.97;;;4.10;;
56718;SDS011;42597;40.636;0.278;2022-07-03T02:38:20;6.07;;;4.47;;
56718;SDS011;42597;40.636;0.278;2022-07-03T02:41:02;7.82;;;4.50;;
56718;SDS011;42597;40.636;0.278;2022-07-03T02:54:46;7.38;;;3.95;;
56718;SDS011;42597;40.636;0.278;2022-07-03T02:57:13;5.85;;;3.92;;
56718;SDS011;42597;40.636;0.278;2022-07-03T03:08:12;7.00;;;4.53;;
56718;SDS011;42597;40.636;0.278;2022-07-03T03:10:48;10.80;;;4.93;;
56718;SDS011;42597;40.636;0.278;2022-07-03T03:13:15;9.15;;;4.63;;
56718;SDS011;42597;40.636;0.278;2022-07-03T03:15:51;9.60;;;4.18;;
56718;SDS011;42597;40.636;0.278;2022-07-03T03:18:25;5.65;;;3.67;;
56718;SDS011;42597;40.636;0.278;2022-07-03T03:20:53;6.43;;;3.97;;
56718;SDS011;42597;40.636;0.278;2022-07-03T03:23:33;8.85;;;4.35;;
56718;SDS011;42597;40.636;0.278;2022-07-03T03:25:59;6.15;;;4.13;;
56718;SDS011;42597;40.636;0.278;2022-07-03T03:28:24;6.72;;;4.25;;
56718;SDS011;42597;40.636;0.278;2022-07-03T03:30:50;13.48;;;4.30;;
56718;SDS011;42597;40.636;0.278;2022-07-03T03:33:16;7.10;;;4.28;;
56718;SDS011;42597;40.636;0.278;2022-07-03T03:35:42;8.95;;;5.13;;
56718;SDS011;42597;40.636;0.278;2022-07-03T03:38:08;8.18;;;4.40;;
56718;SDS011;42597;40.636;0.278;2022-07-03T03:40:34;7.97;;;4.70;;
56718;SDS011;42597;40.636;0.278;2022-07-03T03:43:00;6.90;;;4.25;;
56718;SDS011;42597;40.636;0.278;2022-07-03T03:45:27;8.77;;;4.60;;
56718;SDS011;42597;40.636;0.278;2022-07-03T03:47:52;7.05;;;4.38;;
56718;SDS011;42597;40.636;0.278;2022-07-03T03:50:18;6.38;;;4.45;;
56718;SDS011;42597;40.636;0.278;2022-07-03T03:52:44;7.70;;;4.53;;
56718;SDS011;42597;40.636;0.278;2022-07-03T03:55:09;6.18;;;4.22;;
56718;SDS011;42597;40.636;0.278;2022-07-03T03:57:35;8.35;;;5.05;;
56718;SDS011;42597;40.636;0.278;2022-07-03T04:00:02;9.25;;;4.80;;
56718;SDS011;42597;40.636;0.278;2022-07-03T04:02:28;8.23;;;4.22;;
56718;SDS011;42597;40.636;0.278;2022-07-03T04:04:54;5.07;;;3.33;;
56718;SDS011;42597;40.636;0.278;2022-07-03T04:07:19;8.20;;;4.30;;
56718;SDS011;42597;40.636;0.278;2022-07-03T04:09:45;6.68;;;4.05;;
56718;SDS011;42597;40.636;0.278;2022-07-03T04:12:11;9.25;;;4.50;;
56718;SDS011;42597;40.636;0.278;2022-07-03T04:14:36;6.40;;;3.88;;
56718;SDS011;42597;40.636;0.278;2022-07-03T04:17:02;7.07;;;4.70;;
56718;SDS011;42597;40.636;0.278;2022-07-03T04:19:28;6.10;;;4.30;;
56718;SDS011;42597;40.636;0.278;2022-07-03T04:21:53;10.57;;;4.88;;
56718;SDS011;42597;40.636;0.278;2022-07-03T04:24:19;8.18;;;3.70;;
56718;SDS011;42597;40.636;0.278;2022-07-03T04:26:45;7.88;;;3.63;;
56718;SDS011;42597;40.636;0.278;2022-07-03T04:29:10;7.82;;;4.32;;
56718;SDS011;42597;40.636;0.278;2022-07-03T04:31:36;6.63;;;4.00;;
56718;SDS011;42597;40.636;0.278;2022-07-03T04:34:02;6.20;;;4.15;;
56718;SDS011;42597;40.636;0.278;2022-07-03T04:36:27;10.45;;;5.05;;
56718;SDS011;42597;40.636;0.278;2022-07-03T04:38:53;6.95;;;4.55;;
56718;SDS011;42597;40.636;0.278;2022-07-03T04:41:19;7.65;;;4.43;;
56718;SDS011;42597;40.636;0.278;2022-07-03T04:43:44;8.93;;;5.00;;
56718;SDS011;42597;40.636;0.278;2022-07-03T04:46:10;8.98;;;4.50;;
56718;SDS011;42597;40.636;0.278;2022-07-03T04:48:35;14.45;;;4.78;;
56718;SDS011;42597;40.636;0.278;2022-07-03T04:51:01;9.73;;;4.32;;
56718;SDS011;42597;40.636;0.278;2022-07-03T04:53:26;7.68;;;4.05;;
56718;SDS011;42597;40.636;0.278;2022-07-03T04:55:52;12.85;;;4.93;;
56718;SDS011;42597;40.636;0.278;2022-07-03T04:58:17;11.43;;;4.50;;
56718;SDS011;42597;40.636;0.278;2022-07-03T05:00:43;7.57;;;4.20;;
56718;SDS011;42597;40.636;0.278;2022-07-03T05:03:09;11.43;;;4.93;;
56718;SDS011;42597;40.636;0.278;2022-07-03T05:05:36;6.63;;;4.20;;
56718;SDS011;42597;40.636;0.278;2022-07-03T05:08:01;6.28;;;4.05;;
56718;SDS011;42597;40.636;0.278;2022-07-03T05:10:27;8.85;;;4.43;;
56718;SDS011;42597;40.636;0.278;2022-07-03T05:12:52;9.43;;;3.95;;
56718;SDS011;42597;40.636;0.278;2022-07-03T05:15:18;6.15;;;4.32;;
56718;SDS011;42597;40.636;0.278;2022-07-03T05:17:44;8.75;;;4.38;;
56718;SDS011;42597;40.636;0.278;2022-07-03T05:20:10;7.57;;;4.25;;
56718;SDS011;42597;40.636;0.278;2022-07-03T05:22:55;14.15;;;5.13;;
56718;SDS011;42597;40.636;0.278;2022-07-03T05:25:25;8.27;;;4.25;;
56718;SDS011;42597;40.636;0.278;2022-07-03T05:27:52;10.02;;;5.43;;
56718;SDS011;42597;40.636;0.278;2022-07-03T05:30:21;7.72;;;3.53;;
56718;SDS011;42597;40.636;0.278;2022-07-03T05:32:47;7.80;;;4.50;;
56718;SDS011;42597;40.636;0.278;2022-07-03T05:35:13;11.85;;;4.40;;
56718;SDS011;42597;40.636;0.278;2022-07-03T05:37:39;9.55;;;4.45;;
56718;SDS011;42597;40.636;0.278;2022-07-03T05:40:05;8.38;;;4.45;;
56718;SDS011;42597;40.636;0.278;2022-07-03T05:42:31;8.10;;;4.78;;
56718;SDS011;42597;40.636;0.278;2022-07-03T05:44:57;7.97;;;4.60;;
56718;SDS011;42597;40.636;0.278;2022-07-03T05:47:23;8.80;;;4.50;;
56718;SDS011;42597;40.636;0.278;2022-07-03T05:49:48;8.05;;;4.40;;
56718;SDS011;42597;40.636;0.278;2022-07-03T05:52:14;8.00;;;4.78;;
56718;SDS011;42597;40.636;0.278;2022-07-03T05:54:41;10.90;;;4.78;;
56718;SDS011;42597;40.636;0.278;2022-07-03T05:57:06;11.52;;;5.35;;
56718;SDS011;42597;40.636;0.278;2022-07-03T05:59:32;6.55;;;4.82;;
56718;SDS011;42597;40.636;0.278;2022-07-03T06:01:57;6.80;;;4.35;;
56718;SDS011;42597;40.636;0.278;2022-07-03T06:04:23;5.15;;;3.42;;
56718;SDS011;42597;40.636;0.278;2022-07-03T06:06:48;6.35;;;4.18;;
56718;SDS011;42597;40.636;0.278;2022-07-03T06:09:14;7.50;;;4.45;;
56718;SDS011;42597;40.636;0.278;2022-07-03T06:11:39;8.10;;;4.75;;
56718;SDS011;42597;40.636;0.278;2022-07-03T06:14:05;9.93;;;4.43;;
56718;SDS011;42597;40.636;0.278;2022-07-03T06:16:31;7.55;;;5.15;;
56718;SDS011;42597;40.636;0.278;2022-07-03T06:18:57;7.53;;;4.45;;
56718;SDS011;42597;40.636;0.278;2022-07-03T06:21:23;9.57;;;5.05;;
56718;SDS011;42597;40.636;0.278;2022-07-03T06:23:48;8.27;;;5.22;;
56718;SDS011;42597;40.636;0.278;2022-07-03T06:26:14;9.95;;;4.78;;
56718;SDS011;42597;40.636;0.278;2022-07-03T06:28:40;11.57;;;4.68;;
56718;SDS011;42597;40.636;0.278;2022-07-03T06:31:06;7.82;;;4.45;;
56718;SDS011;42597;40.636;0.278;2022-07-03T06:33:31;8.30;;;4.07;;
56718;SDS011;42597;40.636;0.278;2022-07-03T06:35:57;6.15;;;3.65;;
56718;SDS011;42597;40.636;0.278;2022-07-03T06:38:23;9.02;;;4.38;;
56718;SDS011;42597;40.636;0.278;2022-07-03T06:40:48;8.10;;;4.70;;
56718;SDS011;42597;40.636;0.278;2022-07-03T06:43:14;8.40;;;3.53;;
56718;SDS011;42597;40.636;0.278;2022-07-03T06:45:40;13.15;;;4.47;;
56718;SDS011;42597;40.636;0.278;2022-07-03T06:48:05;6.95;;;3.70;;
56718;SDS011;42597;40.636;0.278;2022-07-03T06:50:31;7.60;;;3.83;;
56718;SDS011;42597;40.636;0.278;2022-07-03T06:52:56;7.97;;;3.67;;
56718;SDS011;42597;40.636;0.278;2022-07-03T06:55:22;7.80;;;4.07;;
56718;SDS011;42597;40.636;0.278;2022-07-03T06:57:47;8.30;;;4.53;;
56718;SDS011;42597;40.636;0.278;2022-07-03T07:00:13;6.13;;;3.65;;
56718;SDS011;42597;40.636;0.278;2022-07-03T07:02:39;6.32;;;3.53;;
56718;SDS011;42597;40.636;0.278;2022-07-03T07:05:04;8.38;;;4.20;;
56718;SDS011;42597;40.636;0.278;2022-07-03T07:07:30;9.32;;;4.07;;
56718;SDS011;42597;40.636;0.278;2022-07-03T07:09:56;8.30;;;3.40;;
56718;SDS011;42597;40.636;0.278;2022-07-03T07:12:22;6.25;;;3.38;;
56718;SDS011;42597;40.636;0.278;2022-07-03T07:14:47;6.50;;;3.20;;
56718;SDS011;42597;40.636;0.278;2022-07-03T07:17:13;12.13;;;3.50;;
56718;SDS011;42597;40.636;0.278;2022-07-03T07:19:38;7.20;;;2.97;;
56718;SDS011;42597;40.636;0.278;2022-07-03T07:22:04;9.38;;;4.18;;
56718;SDS011;42597;40.636;0.278;2022-07-03T07:24:29;8.02;;;4.30;;
56718;SDS011;42597;40.636;0.278;2022-07-03T07:26:55;6.30;;;3.78;;
56718;SDS011;42597;40.636;0.278;2022-07-03T07:29:20;5.57;;;3.42;;
56718;SDS011;42597;40.636;0.278;2022-07-03T07:31:46;9.02;;;5.13;;
56718;SDS011;42597;40.636;0.278;2022-07-03T07:34:11;10.68;;;4.45;;
56718;SDS011;42597;40.636;0.278;2022-07-03T07:36:38;6.60;;;3.20;;
56718;SDS011;42597;40.636;0.278;2022-07-03T07:39:04;11.48;;;4.22;;
56718;SDS011;42597;40.636;0.278;2022-07-03T07:41:29;8.25;;;4.30;;
56718;SDS011;42597;40.636;0.278;2022-07-03T07:43:55;4.95;;;3.20;;
56718;SDS011;42597;40.636;0.278;2022-07-03T07:46:21;7.43;;;3.72;;
56718;SDS011;42597;40.636;0.278;2022-07-03T07:48:46;5.28;;;3.33;;
56718;SDS011;42597;40.636;0.278;2022-07-03T07:51:12;5.47;;;3.17;;
56718;SDS011;42597;40.636;0.278;2022-07-03T07:53:37;8.15;;;4.47;;
56718;SDS011;42597;40.636;0.278;2022-07-03T07:56:03;6.45;;;3.25;;
56718;SDS011;42597;40.636;0.278;2022-07-03T07:58:29;11.40;;;4.28;;
56718;SDS011;42597;40.636;0.278;2022-07-03T08:00:54;5.93;;;3.83;;
56718;SDS011;42597;40.636;0.278;2022-07-03T08:03:38;7.10;;;3.80;;
56718;SDS011;42597;40.636;0.278;2022-07-03T08:06:23;7.07;;;4.35;;
56718;SDS011;42597;40.636;0.278;2022-07-03T08:08:48;6.60;;;4.05;;
56718;SDS011;42597;40.636;0.278;2022-07-03T08:11:14;5.63;;;3.67;;
56718;SDS011;42597;40.636;0.278;2022-07-03T08:13:39;6.55;;;3.60;;
56718;SDS011;42597;40.636;0.278;2022-07-03T08:16:05;9.00;;;3.20;;
56718;SDS011;42597;40.636;0.278;2022-07-03T08:18:30;8.23;;;3.55;;
56718;SDS011;42597;40.636;0.278;2022-07-03T08:20:56;6.45;;;3.50;;
56718;SDS011;42597;40.636;0.278;2022-07-03T08:23:22;4.30;;;2.75;;
56718;SDS011;42597;40.636;0.278;2022-07-03T08:25:47;5.80;;;3.38;;
56718;SDS011;42597;40.636;0.278;2022-07-03T08:28:13;5.15;;;2.85;;
56718;SDS011;42597;40.636;0.278;2022-07-03T08:30:38;7.97;;;3.20;;
56718;SDS011;42597;40.636;0.278;2022-07-03T08:33:04;5.70;;;3.20;;
56718;SDS011;42597;40.636;0.278;2022-07-03T08:35:29;8.48;;;3.35;;
56718;SDS011;42597;40.636;0.278;2022-07-03T08:37:55;10.85;;;4.43;;
56718;SDS011;42597;40.636;0.278;2022-07-03T08:40:21;6.55;;;3.55;;
56718;SDS011;42597;40.636;0.278;2022-07-03T08:42:54;7.18;;;3.58;;
56718;SDS011;42597;40.636;0.278;2022-07-03T08:45:22;6.75;;;3.90;;
56718;SDS011;42597;40.636;0.278;2022-07-03T08:47:49;6.93;;;2.78;;
56718;SDS011;42597;40.636;0.278;2022-07-03T08:50:16;4.97;;;3.38;;
56718;SDS011;42597;40.636;0.278;2022-07-03T08:52:44;7.28;;;3.72;;
56718;SDS011;42597;40.636;0.278;2022-07-03T08:55:11;5.60;;;3.50;;
56718;SDS011;42597;40.636;0.278;2022-07-03T08:57:38;5.27;;;3.37;;
56718;SDS011;42597;40.636;0.278;2022-07-03T09:00:17;6.43;;;3.95;;
56718;SDS011;42597;40.636;0.278;2022-07-03T09:02:44;6.82;;;4.35;;
56718;SDS011;42597;40.636;0.278;2022-07-03T09:05:11;7.28;;;3.92;;
56718;SDS011;42597;40.636;0.278;2022-07-03T09:07:38;10.13;;;4.35;;
56718;SDS011;42597;40.636;0.278;2022-07-03T09:10:06;9.30;;;4.23;;
56718;SDS011;42597;40.636;0.278;2022-07-03T09:12:34;6.47;;;4.03;;
56718;SDS011;42597;40.636;0.278;2022-07-03T09:15:00;7.38;;;4.72;;
56718;SDS011;42597;40.636;0.278;2022-07-03T09:17:27;12.45;;;4.57;;
56718;SDS011;42597;40.636;0.278;2022-07-03T09:19:53;12.07;;;4.13;;
56718;SDS011;42597;40.636;0.278;2022-07-03T09:22:23;9.30;;;3.35;;
56718;SDS011;42597;40.636;0.278;2022-07-03T09:24:49;9.00;;;3.47;;
56718;SDS011;42597;40.636;0.278;2022-07-03T09:27:18;7.25;;;3.70;;
56718;SDS011;42597;40.636;0.278;2022-07-03T09:29:51;4.72;;;2.97;;
56718;SDS011;42597;40.636;0.278;2022-07-03T09:35:36;10.45;;;3.88;;
56718;SDS011;42597;40.636;0.278;2022-07-03T09:40:28;6.30;;;3.42;;
56718;SDS011;42597;40.636;0.278;2022-07-03T09:43:12;9.60;;;3.45;;
56718;SDS011;42597;40.636;0.278;2022-07-03T09:46:11;6.93;;;3.53;;
56718;SDS011;42597;40.636;0.278;2022-07-03T09:48:32;6.63;;;3.80;;
56718;SDS011;42597;40.636;0.278;2022-07-03T09:51:16;7.85;;;4.78;;
56718;SDS011;42597;40.636;0.278;2022-07-03T09:56:21;9.43;;;4.00;;
56718;SDS011;42597;40.636;0.278;2022-07-03T09:59:14;9.82;;;3.47;;
56718;SDS011;42597;40.636;0.278;2022-07-03T10:01:41;7.03;;;3.60;;
56718;SDS011;42597;40.636;0.278;2022-07-03T10:04:12;7.65;;;4.43;;
56718;SDS011;42597;40.636;0.278;2022-07-03T10:06:46;9.90;;;4.25;;
56718;SDS011;42597;40.636;0.278;2022-07-03T10:09:16;6.78;;;4.03;;
56718;SDS011;42597;40.636;0.278;2022-07-03T10:11:43;7.88;;;3.88;;
56718;SDS011;42597;40.636;0.278;2022-07-03T10:14:19;7.28;;;4.47;;
56718;SDS011;42597;40.636;0.278;2022-07-03T10:16:46;6.32;;;3.75;;
56718;SDS011;42597;40.636;0.278;2022-07-03T10:19:14;6.95;;;3.38;;
56718;SDS011;42597;40.636;0.278;2022-07-03T10:21:50;9.45;;;3.90;;
56718;SDS011;42597;40.636;0.278;2022-07-03T10:24:26;10.18;;;4.30;;
56718;SDS011;42597;40.636;0.278;2022-07-03T10:26:53;7.80;;;4.00;;
56718;SDS011;42597;40.636;0.278;2022-07-03T10:29:23;6.93;;;3.78;;
56718;SDS011;42597;40.636;0.278;2022-07-03T10:31:50;6.57;;;4.13;;
56718;SDS011;42597;40.636;0.278;2022-07-03T10:34:20;9.35;;;3.22;;
56718;SDS011;42597;40.636;0.278;2022-07-03T10:36:47;7.07;;;3.58;;
56718;SDS011;42597;40.636;0.278;2022-07-03T10:39:33;8.73;;;3.67;;
56718;SDS011;42597;40.636;0.278;2022-07-03T10:42:28;6.88;;;4.07;;
56718;SDS011;42597;40.636;0.278;2022-07-03T10:45:17;7.35;;;3.40;;
56718;SDS011;42597;40.636;0.278;2022-07-03T10:47:44;12.32;;;4.80;;
56718;SDS011;42597;40.636;0.278;2022-07-03T10:50:14;15.40;;;4.70;;
56718;SDS011;42597;40.636;0.278;2022-07-03T10:52:44;16.05;;;3.78;;
56718;SDS011;42597;40.636;0.278;2022-07-03T10:55:11;14.82;;;4.13;;
56718;SDS011;42597;40.636;0.278;2022-07-03T10:57:39;6.80;;;3.65;;
56718;SDS011;42597;40.636;0.278;2022-07-03T11:00:15;9.88;;;4.47;;
56718;SDS011;42597;40.636;0.278;2022-07-03T11:20:34;12.63;;;5.18;;
56718;SDS011;42597;40.636;0.278;2022-07-03T11:23:06;13.13;;;5.03;;
56718;SDS011;42597;40.636;0.278;2022-07-03T11:36:23;9.82;;;4.07;;
56718;SDS011;42597;40.636;0.278;2022-07-03T11:43:46;10.45;;;5.20;;
56718;SDS011;42597;40.636;0.278;2022-07-03T11:46:15;9.70;;;4.45;;
56718;SDS011;42597;40.636;0.278;2022-07-03T11:48:42;14.00;;;5.68;;
56718;SDS011;42597;40.636;0.278;2022-07-03T11:51:08;11.07;;;4.55;;
56718;SDS011;42597;40.636;0.278;2022-07-03T11:53:35;11.07;;;5.45;;
56718;SDS011;42597;40.636;0.278;2022-07-03T11:56:13;8.13;;;4.50;;
56718;SDS011;42597;40.636;0.278;2022-07-03T11:58:50;9.02;;;4.50;;
56718;SDS011;42597;40.636;0.278;2022-07-03T12:03:52;7.68;;;4.28;;
56718;SDS011;42597;40.636;0.278;2022-07-03T12:06:19;8.48;;;5.18;;
56718;SDS011;42597;40.636;0.278;2022-07-03T12:08:46;15.60;;;6.13;;
56718;SDS011;42597;40.636;0.278;2022-07-03T12:11:15;7.28;;;4.30;;
56718;SDS011;42597;40.636;0.278;2022-07-03T12:13:43;13.80;;;4.95;;
56718;SDS011;42597;40.636;0.278;2022-07-03T12:16:09;10.55;;;5.13;;
56718;SDS011;42597;40.636;0.278;2022-07-03T12:21:19;10.30;;;4.93;;
56718;SDS011;42597;40.636;0.278;2022-07-03T12:23:49;11.50;;;5.07;;
56718;SDS011;42597;40.636;0.278;2022-07-03T12:26:37;12.98;;;4.82;;
56718;SDS011;42597;40.636;0.278;2022-07-03T12:29:03;14.18;;;4.80;;
56718;SDS011;42597;40.636;0.278;2022-07-03T12:31:32;10.23;;;4.40;;
56718;SDS011;42597;40.636;0.278;2022-07-03T12:33:59;14.32;;;5.90;;
56718;SDS011;42597;40.636;0.278;2022-07-03T12:36:25;7.95;;;4.15;;
56718;SDS011;42597;40.636;0.278;2022-07-03T12:38:52;7.53;;;4.25;;
56718;SDS011;42597;40.636;0.278;2022-07-03T12:41:19;11.93;;;4.55;;
56718;SDS011;42597;40.636;0.278;2022-07-03T12:43:46;9.48;;;4.15;;
56718;SDS011;42597;40.636;0.278;2022-07-03T12:48:57;9.40;;;4.70;;
56718;SDS011;42597;40.636;0.278;2022-07-03T12:54:14;9.07;;;4.18;;
56718;SDS011;42597;40.636;0.278;2022-07-03T12:56:41;10.40;;;4.27;;
56718;SDS011;42597;40.636;0.278;2022-07-03T12:59:24;7.63;;;4.03;;
56718;SDS011;42597;40.636;0.278;2022-07-03T13:02:00;8.65;;;5.03;;
56718;SDS011;42597;40.636;0.278;2022-07-03T13:04:30;10.32;;;4.38;;
56718;SDS011;42597;40.636;0.278;2022-07-03T13:09:35;10.15;;;3.58;;
56718;SDS011;42597;40.636;0.278;2022-07-03T13:12:02;9.10;;;4.55;;
56718;SDS011;42597;40.636;0.278;2022-07-03T13:14:29;6.65;;;3.85;;
56718;SDS011;42597;40.636;0.278;2022-07-03T13:16:56;7.30;;;3.47;;
56718;SDS011;42597;40.636;0.278;2022-07-03T13:19:22;9.10;;;4.32;;
56718;SDS011;42597;40.636;0.278;2022-07-03T13:21:51;5.75;;;3.13;;
56718;SDS011;42597;40.636;0.278;2022-07-03T13:24:18;11.95;;;3.40;;
56718;SDS011;42597;40.636;0.278;2022-07-03T13:26:44;5.07;;;3.13;;
56718;SDS011;42597;40.636;0.278;2022-07-03T13:29:11;5.35;;;2.95;;
56718;SDS011;42597;40.636;0.278;2022-07-03T13:31:37;7.90;;;2.72;;
56718;SDS011;42597;40.636;0.278;2022-07-03T13:34:02;6.60;;;3.40;;
56718;SDS011;42597;40.636;0.278;2022-07-03T13:36:29;5.93;;;2.63;;
56718;SDS011;42597;40.636;0.278;2022-07-03T13:38:55;9.07;;;3.30;;
56718;SDS011;42597;40.636;0.278;2022-07-03T13:41:21;6.93;;;3.40;;
56718;SDS011;42597;40.636;0.278;2022-07-03T13:43:48;11.68;;;3.75;;
56718;SDS011;42597;40.636;0.278;2022-07-03T13:46:15;6.57;;;3.05;;
56718;SDS011;42597;40.636;0.278;2022-07-03T13:48:41;5.50;;;2.60;;
56718;SDS011;42597;40.636;0.278;2022-07-03T13:51:07;4.78;;;2.70;;
56718;SDS011;42597;40.636;0.278;2022-07-03T13:53:33;5.40;;;2.78;;
56718;SDS011;42597;40.636;0.278;2022-07-03T13:55:59;6.55;;;2.92;;
56718;SDS011;42597;40.636;0.278;2022-07-03T13:58:25;6.78;;;2.75;;
56718;SDS011;42597;40.636;0.278;2022-07-03T14:00:51;4.75;;;2.88;;
56718;SDS011;42597;40.636;0.278;2022-07-03T14:03:17;5.55;;;3.30;;
56718;SDS011;42597;40.636;0.278;2022-07-03T14:05:43;9.13;;;3.13;;
56718;SDS011;42597;40.636;0.278;2022-07-03T14:08:08;5.60;;;3.08;;
56718;SDS011;42597;40.636;0.278;2022-07-03T14:10:34;4.65;;;2.92;;
56718;SDS011;42597;40.636;0.278;2022-07-03T14:12:59;4.95;;;3.20;;
56718;SDS011;42597;40.636;0.278;2022-07-03T14:15:25;4.85;;;2.95;;
56718;SDS011;42597;40.636;0.278;2022-07-03T14:17:50;3.83;;;2.35;;
56718;SDS011;42597;40.636;0.278;2022-07-03T14:20:16;7.82;;;2.80;;
56718;SDS011;42597;40.636;0.278;2022-07-03T14:22:41;9.00;;;3.75;;
56718;SDS011;42597;40.636;0.278;2022-07-03T14:25:07;5.50;;;3.30;;
56718;SDS011;42597;40.636;0.278;2022-07-03T14:27:34;6.97;;;3.17;;
56718;SDS011;42597;40.636;0.278;2022-07-03T14:30:19;13.75;;;4.05;;
56718;SDS011;42597;40.636;0.278;2022-07-03T14:33:03;8.43;;;4.25;;
56718;SDS011;42597;40.636;0.278;2022-07-03T14:35:29;8.77;;;4.05;;
56718;SDS011;42597;40.636;0.278;2022-07-03T14:37:55;8.65;;;3.63;;
56718;SDS011;42597;40.636;0.278;2022-07-03T14:40:20;5.50;;;3.38;;
56718;SDS011;42597;40.636;0.278;2022-07-03T14:42:46;8.15;;;3.25;;
56718;SDS011;42597;40.636;0.278;2022-07-03T14:45:11;6.22;;;3.38;;
56718;SDS011;42597;40.636;0.278;2022-07-03T14:47:37;4.43;;;2.90;;
56718;SDS011;42597;40.636;0.278;2022-07-03T14:50:03;4.57;;;3.00;;
56718;SDS011;42597;40.636;0.278;2022-07-03T14:52:28;6.53;;;3.47;;
56718;SDS011;42597;40.636;0.278;2022-07-03T14:54:55;4.28;;;3.00;;
56718;SDS011;42597;40.636;0.278;2022-07-03T15:00:11;6.43;;;3.30;;
56718;SDS011;42597;40.636;0.278;2022-07-03T15:05:18;7.25;;;2.92;;
56718;SDS011;42597;40.636;0.278;2022-07-03T15:07:48;8.98;;;3.20;;
56718;SDS011;42597;40.636;0.278;2022-07-03T15:10:33;8.05;;;3.28;;
56718;SDS011;42597;40.636;0.278;2022-07-03T15:13:01;5.65;;;2.53;;
56718;SDS011;42597;40.636;0.278;2022-07-03T15:15:29;4.13;;;2.85;;
56718;SDS011;42597;40.636;0.278;2022-07-03T15:17:56;7.07;;;3.38;;
56718;SDS011;42597;40.636;0.278;2022-07-03T15:20:25;6.55;;;3.15;;
56718;SDS011;42597;40.636;0.278;2022-07-03T15:22:55;6.40;;;3.05;;
56718;SDS011;42597;40.636;0.278;2022-07-03T15:25:23;5.50;;;2.65;;
56718;SDS011;42597;40.636;0.278;2022-07-03T15:27:52;5.70;;;2.88;;
56718;SDS011;42597;40.636;0.278;2022-07-03T15:30:20;5.28;;;2.55;;
56718;SDS011;42597;40.636;0.278;2022-07-03T15:32:46;5.07;;;2.38;;
56718;SDS011;42597;40.636;0.278;2022-07-03T15:35:13;8.57;;;2.90;;
56718;SDS011;42597;40.636;0.278;2022-07-03T15:37:51;5.47;;;3.08;;
56718;SDS011;42597;40.636;0.278;2022-07-03T15:40:24;6.25;;;3.63;;
56718;SDS011;42597;40.636;0.278;2022-07-03T15:51:15;5.45;;;3.13;;
56718;SDS011;42597;40.636;0.278;2022-07-03T15:53:56;11.45;;;3.53;;
56718;SDS011;42597;40.636;0.278;2022-07-03T15:56:30;8.80;;;3.53;;
56718;SDS011;42597;40.636;0.278;2022-07-03T15:59:02;7.10;;;3.97;;
56718;SDS011;42597;40.636;0.278;2022-07-03T16:04:20;6.95;;;2.78;;
56718;SDS011;42597;40.636;0.278;2022-07-03T16:06:52;7.55;;;3.20;;
56718;SDS011;42597;40.636;0.278;2022-07-03T16:09:19;6.82;;;3.30;;
56718;SDS011;42597;40.636;0.278;2022-07-03T16:11:47;7.57;;;3.40;;
56718;SDS011;42597;40.636;0.278;2022-07-03T16:14:13;8.13;;;3.10;;
56718;SDS011;42597;40.636;0.278;2022-07-03T16:16:40;7.53;;;3.45;;
56718;SDS011;42597;40.636;0.278;2022-07-03T16:19:06;4.80;;;2.70;;
56718;SDS011;42597;40.636;0.278;2022-07-03T16:21:34;6.53;;;2.50;;
56718;SDS011;42597;40.636;0.278;2022-07-03T16:24:01;9.70;;;3.28;;
56718;SDS011;42597;40.636;0.278;2022-07-03T16:26:29;6.97;;;2.58;;
56718;SDS011;42597;40.636;0.278;2022-07-03T16:28:55;7.75;;;3.60;;
56718;SDS011;42597;40.636;0.278;2022-07-03T16:31:24;7.78;;;4.05;;
56718;SDS011;42597;40.636;0.278;2022-07-03T16:33:56;14.65;;;3.90;;
56718;SDS011;42597;40.636;0.278;2022-07-03T16:36:33;6.15;;;2.30;;
56718;SDS011;42597;40.636;0.278;2022-07-03T16:39:03;6.38;;;3.30;;
56718;SDS011;42597;40.636;0.278;2022-07-03T16:41:33;11.27;;;3.88;;
56718;SDS011;42597;40.636;0.278;2022-07-03T16:44:01;10.10;;;3.25;;
56718;SDS011;42597;40.636;0.278;2022-07-03T16:46:29;8.90;;;3.67;;
56718;SDS011;42597;40.636;0.278;2022-07-03T16:48:55;4.82;;;2.80;;
56718;SDS011;42597;40.636;0.278;2022-07-03T16:51:22;6.57;;;3.25;;
56718;SDS011;42597;40.636;0.278;2022-07-03T16:53:53;8.57;;;3.60;;